.
WxDataArchive / Data Records for 2006-08-21
2006-08-20 August 2006 2006-08-22

Data Records for Monday, 21 August 2006

Time	Temp	Chill	HIndex	Humid	Dewpt	 Wind 	HiWind	WindDir	Rain 	Barom 
-----	----	-----	------	-----	-----	------	------	-------	-----	----- 
00:00	59.5	59.5	59.5	88	55.9	0	0	---	0.00	30.063 
00:05	59.5	59.5	59.5	88	55.9	0	0	---	0.00	30.063 
00:10	59.5	59.5	59.5	88	55.9	0	0	---	0.00	30.063 
00:15	59.3	59.3	59.3	88	55.7	0	0	---	0.00	30.067 
00:20	59.3	59.3	59.3	88	55.7	0	0	---	0.00	30.067 
00:25	59.2	59.2	59.2	88	55.6	0	0	---	0.00	30.067 
00:30	59.0	59.0	59.0	88	55.4	0	0	---	0.00	30.072 
00:35	58.9	58.9	58.9	88	55.3	0	0	---	0.00	30.072 
00:40	58.6	58.6	58.6	88	55.1	0	0	---	0.00	30.072 
00:45	58.4	58.4	58.4	89	55.2	0	0	---	0.00	30.077 
00:50	58.3	58.3	58.3	90	55.4	0	0	---	0.00	30.077 
00:55	58.3	58.3	58.3	90	55.4	0	0	---	0.00	30.077 
01:00	58.3	58.3	58.3	91	55.7	0	0	---	0.00	30.077 
01:05	58.1	58.1	58.1	91	55.5	0	0	---	0.00	30.077 
01:10	58.0	58.0	58.0	91	55.4	0	0	---	0.00	30.077 
01:15	58.0	58.0	58.0	91	55.4	0	0	---	0.00	30.080 
01:20	58.0	58.0	58.0	92	55.7	0	0	---	0.00	30.080 
01:25	57.8	57.8	57.8	92	55.5	0	0	---	0.00	30.080 
01:30	57.6	57.6	57.6	92	55.3	0	0	---	0.00	30.084 
01:35	57.5	57.5	57.5	92	55.2	0	0	---	0.00	30.084 
01:40	57.5	57.5	57.5	92	55.2	0	0	---	0.00	30.084 
01:45	57.3	57.3	57.3	92	55.0	0	0	---	0.00	30.086 
01:50	57.3	57.3	57.3	92	55.0	0	0	---	0.00	30.086 
01:55	57.2	57.2	57.2	92	54.9	0	0	---	0.00	30.086 
02:00	57.0	57.0	57.0	92	54.7	0	0	---	0.00	30.082 
02:05	56.9	56.9	56.9	92	54.6	0	0	---	0.00	30.082 
02:10	56.9	56.9	56.9	93	54.9	0	0	---	0.00	30.082 
02:15	56.9	56.9	56.9	93	54.9	0	0	---	0.00	30.078 
02:20	56.9	56.9	56.9	93	54.9	0	0	---	0.00	30.078 
02:25	56.9	56.9	56.9	93	54.9	0	0	---	0.00	30.078 
02:30	56.9	56.9	56.9	93	54.9	0	1	248	0.00	30.077 
02:35	57.0	57.0	57.0	94	55.3	0	1	---	0.00	30.077 
02:40	57.0	57.0	57.0	94	55.3	0	0	---	0.00	30.077 
02:45	57.2	57.2	57.2	94	55.5	0	0	---	0.00	30.078 
02:50	57.0	57.0	57.0	94	55.3	0	0	---	0.00	30.078 
02:55	57.0	57.0	57.0	94	55.3	0	0	---	0.00	30.078 
03:00	56.9	56.9	56.9	94	55.2	0	0	---	0.00	30.078 
03:05	56.7	56.7	56.7	94	55.0	0	0	---	0.00	30.078 
03:10	56.7	56.7	56.7	94	55.0	0	0	---	0.00	30.078 
03:15	56.7	56.7	56.7	94	55.0	0	0	---	0.00	30.078 
03:20	57.2	57.2	57.2	95	55.8	0	0	---	0.00	30.078 
03:25	57.5	57.5	57.5	95	56.1	0	0	---	0.00	30.078 
03:30	57.6	57.6	57.6	95	56.2	0	0	---	0.00	30.079 
03:35	57.5	57.5	57.5	95	56.1	0	0	---	0.00	30.079 
03:40	57.5	57.5	57.5	94	55.8	0	0	---	0.00	30.079 
03:45	57.6	57.6	57.6	94	55.9	0	0	---	0.00	30.084 
03:50	57.5	57.5	57.5	94	55.8	0	0	---	0.00	30.084 
03:55	57.5	57.5	57.5	94	55.8	0	0	---	0.00	30.084 
04:00	57.5	57.5	57.5	94	55.8	0	0	---	0.00	30.088 
04:05	57.5	57.5	57.5	94	55.8	0	0	---	0.00	30.088 
04:10	57.5	57.5	57.5	95	56.1	0	0	---	0.00	30.088 
04:15	57.3	57.3	57.3	94	55.6	0	0	---	0.00	30.089 
04:20	57.2	57.2	57.2	94	55.5	0	0	---	0.00	30.089 
04:25	57.0	57.0	57.0	94	55.3	0	0	---	0.00	30.089 
04:30	56.9	56.9	56.9	94	55.2	0	0	---	0.00	30.086 
04:35	56.7	56.7	56.7	94	55.0	0	0	---	0.00	30.086 
04:40	56.6	56.6	56.6	94	54.9	0	0	---	0.00	30.086 
04:45	56.5	56.5	56.5	94	54.8	0	0	---	0.00	30.080 
04:50	56.5	56.5	56.5	94	54.8	0	0	---	0.00	30.080 
04:55	56.3	56.3	56.3	94	54.6	0	0	---	0.00	30.080 
05:00	56.2	56.2	56.2	94	54.5	0	0	---	0.00	30.087 
05:05	56.2	56.2	56.2	94	54.5	0	0	---	0.00	30.087 
05:10	56.0	56.0	56.0	94	54.3	0	0	---	0.00	30.087 
05:15	55.9	55.9	55.9	94	54.2	0	0	---	0.00	30.091 
05:20	55.9	55.9	55.9	95	54.5	0	0	---	0.00	30.091 
05:25	55.7	55.7	55.7	95	54.3	0	0	---	0.00	30.091 
05:30	55.6	55.6	55.6	95	54.2	0	0	---	0.00	30.090 
05:35	55.6	55.6	55.6	95	54.2	0	0	---	0.00	30.090 
05:40	55.6	55.6	55.6	95	54.2	0	0	---	0.00	30.090 
05:45	55.4	55.4	55.4	95	54.0	0	0	---	0.00	30.091 
05:50	55.4	55.4	55.4	95	54.0	0	0	---	0.00	30.091 
05:55	55.3	55.3	55.3	95	53.9	0	0	---	0.00	30.091 
06:00	55.1	55.1	55.1	95	53.7	0	0	---	0.00	30.093 
06:05	55.0	55.0	55.0	95	53.6	0	0	---	0.00	30.093 
06:10	55.0	55.0	55.0	95	53.6	0	0	---	0.00	30.093 
06:15	54.8	54.8	54.8	95	53.4	0	0	---	0.00	30.096 
06:20	54.7	54.7	54.7	95	53.3	0	0	---	0.00	30.096 
06:25	54.5	54.5	54.5	95	53.1	0	0	---	0.00	30.096 
06:30	54.5	54.5	54.5	95	53.1	0	0	---	0.00	30.097 
06:35	54.4	54.4	54.4	95	53.0	0	0	---	0.00	30.097 
06:40	54.2	54.2	54.2	95	52.8	0	0	---	0.00	30.097 
06:45	54.1	54.1	54.1	95	52.7	0	0	---	0.00	30.096 
06:50	53.9	53.9	53.9	95	52.5	0	0	---	0.00	30.096 
06:55	53.9	53.9	53.9	95	52.5	0	0	---	0.00	30.096 
07:00	53.9	53.9	53.9	95	52.5	0	0	---	0.00	30.098 
07:05	54.1	54.1	54.1	95	52.7	0	0	---	0.00	30.098 
07:10	54.1	54.1	54.1	95	52.7	0	0	---	0.00	30.098 
07:15	54.1	54.1	54.1	95	52.7	0	0	---	0.00	30.107 
07:20	54.1	54.1	54.1	96	53.0	0	0	---	0.00	30.107 
07:25	54.2	54.2	54.2	96	53.1	0	0	---	0.00	30.107 
07:30	54.4	54.4	54.4	96	53.3	0	0	---	0.00	30.115 
07:35	54.4	54.4	54.4	96	53.3	0	0	---	0.00	30.115 
07:40	54.8	54.8	54.8	96	53.7	0	0	---	0.00	30.115 
07:45	55.4	55.4	55.4	96	54.3	0	0	---	0.00	30.114 
07:50	56.0	56.0	56.0	96	54.9	0	0	---	0.00	30.114 
07:55	56.7	56.7	56.7	96	55.6	0	0	---	0.00	30.114 
08:00	57.6	57.6	57.6	96	56.5	0	0	---	0.00	30.111 
08:05	58.3	58.3	58.3	96	57.2	0	0	---	0.00	30.111 
08:10	58.9	58.9	58.9	96	57.8	0	0	---	0.00	30.111 
08:15	59.2	59.2	59.2	96	58.1	0	0	---	0.00	30.113 
08:20	59.6	59.6	59.6	96	58.5	0	0	---	0.00	30.113 
08:25	60.1	60.1	60.1	96	59.0	0	0	---	0.00	30.113 
08:30	61.2	61.2	61.2	96	60.0	0	0	---	0.00	30.111 
08:35	62.1	62.1	62.1	95	60.6	0	1	248	0.00	30.111 
08:40	63.2	63.2	63.2	87	59.3	0	1	248	0.00	30.111 
08:45	63.9	63.9	63.9	84	59.0	1	3	248	0.00	30.111 
08:50	64.7	64.7	64.7	82	59.1	0	1	248	0.00	30.111 
08:55	65.8	65.8	65.8	81	59.8	0	1	248	0.00	30.111 
09:00	66.8	66.8	66.8	78	59.7	0	2	248	0.00	30.121 
09:05	67.1	67.1	67.1	76	59.3	1	2	248	0.00	30.121 
09:10	67.1	67.1	67.1	76	59.3	1	3	112	0.00	30.121 
09:15	67.1	67.1	67.1	76	59.3	1	3	112	0.00	30.124 
09:20	67.1	67.1	67.1	76	59.3	1	3	112	0.00	30.124 
09:25	67.3	67.3	67.3	75	59.1	1	3	112	0.00	30.124 
09:30	67.6	67.6	67.6	73	58.6	1	4	112	0.00	30.125 
09:35	67.9	67.9	67.9	74	59.3	0	2	90	0.00	30.125 
09:40	68.6	68.6	68.6	73	59.6	1	3	90	0.00	30.125 
09:45	69.3	69.3	69.3	72	59.9	1	4	90	0.00	30.118 
09:50	69.4	69.4	69.4	70	59.2	1	4	90	0.00	30.118 
09:55	69.4	69.4	69.4	70	59.2	2	4	90	0.00	30.118 
10:00	69.8	69.8	69.8	71	60.0	1	4	112	0.00	30.114 
10:05	70.3	70.3	70.3	70	60.0	1	4	90	0.00	30.114 
10:10	70.9	70.9	70.9	67	59.4	1	3	90	0.00	30.114 
10:15	71.5	71.5	71.5	67	60.0	1	3	90	0.00	30.116 
10:20	72.1	72.1	72.1	66	60.1	1	3	90	0.00	30.116 
10:25	72.7	72.7	72.7	66	60.7	1	4	90	0.00	30.116 
10:30	73.0	73.0	73.0	63	59.6	1	3	112	0.00	30.119 
10:35	72.8	72.8	72.8	65	60.3	2	6	112	0.00	30.119 
10:40	72.5	72.5	72.5	65	60.0	2	4	90	0.00	30.119 
10:45	72.5	72.5	72.5	67	60.9	1	3	90	0.00	30.117 
10:50	73.0	73.0	73.0	63	59.6	1	2	202	0.00	30.117 
10:55	73.2	73.2	73.2	63	59.8	1	3	248	0.00	30.117 
11:00	73.7	73.7	73.7	62	59.9	1	4	90	0.00	30.120 
11:05	74.2	74.2	74.2	61	59.9	1	2	135	0.00	30.120 
11:10	74.9	74.9	74.9	58	59.1	1	3	135	0.00	30.120 
11:15	75.3	75.3	77.6	59	60.0	0	3	112	0.00	30.125 
11:20	75.6	75.6	77.8	55	58.3	1	3	248	0.00	30.125 
11:25	75.8	75.8	78.0	55	58.5	1	3	112	0.00	30.125 
11:30	76.1	76.1	78.1	60	61.2	1	4	112	0.00	30.126 
11:35	76.7	76.7	78.5	56	59.8	1	4	135	0.00	30.126 
11:40	77.4	77.4	79.0	54	59.4	1	2	90	0.00	30.126 
11:45	77.7	77.7	79.1	51	58.1	1	2	90	0.00	30.123 
11:50	78.3	78.3	79.4	49	57.5	1	2	112	0.00	30.123 
11:55	78.6	78.6	79.4	46	56.1	1	2	112	0.00	30.123 
12:00	77.4	77.4	78.7	46	55.0	1	3	248	0.00	30.130 
12:05	76.0	76.0	78.0	48	54.9	0	2	248	0.00	30.130 
12:10	75.8	75.8	78.0	50	55.8	0	1	248	0.00	30.130 
12:15	76.8	76.8	78.4	47	55.0	1	3	248	0.00	30.125 
12:20	77.7	77.7	79.0	49	57.0	1	3	90	0.00	30.125 
12:25	78.3	78.3	79.3	48	57.0	1	5	90	0.00	30.125 
12:30	78.1	78.1	79.2	47	56.2	2	4	90	0.00	30.121 
12:35	78.6	78.6	79.8	52	59.5	1	3	248	0.00	30.121 
12:40	78.8	78.8	79.4	44	55.0	2	4	135	0.00	30.121 
12:45	78.1	78.1	79.0	45	55.0	1	4	68	0.00	30.122 
12:50	77.9	77.9	79.0	46	55.4	1	2	22	0.00	30.122 
12:55	77.6	77.6	78.9	49	56.9	1	2	338	0.00	30.122 
13:00	77.9	77.9	78.9	45	54.8	1	3	338	0.00	30.120 
13:05	78.1	78.1	79.2	47	56.2	1	3	270	0.00	30.120 
13:10	77.9	77.9	79.0	46	55.4	1	2	270	0.00	30.120 
13:15	77.7	77.7	78.9	47	55.8	0	2	292	0.00	30.116 
13:20	78.1	78.1	79.0	45	55.0	1	3	270	0.00	30.116 
13:25	78.3	78.3	79.2	45	55.2	1	4	270	0.00	30.116 
13:30	78.5	78.5	79.4	46	56.0	1	3	270	0.00	30.113 
13:35	78.5	78.5	79.2	43	54.1	1	3	225	0.00	30.113 
13:40	78.1	78.1	79.0	44	54.4	1	3	225	0.00	30.113 
13:45	77.9	77.9	79.0	46	55.4	1	3	270	0.00	30.112 
13:50	78.5	78.5	79.2	44	54.7	1	3	248	0.00	30.112 
13:55	78.8	78.8	79.4	43	54.4	1	3	248	0.00	30.112 
14:00	79.2	79.2	79.8	45	56.0	2	3	248	0.00	30.112 
14:05	79.6	79.6	79.7	41	53.8	0	2	248	0.00	30.112 
14:10	79.9	79.9	80.1	43	55.4	1	3	248	0.00	30.112 
14:15	79.9	79.9	80.0	42	54.7	1	3	248	0.00	30.107 
14:20	79.9	79.9	80.4	47	57.8	1	2	270	0.00	30.107 
14:25	80.1	80.1	80.2	42	54.9	2	4	90	0.00	30.107 
14:30	79.9	79.9	80.2	44	56.0	2	7	248	0.00	30.107 
14:35	80.5	80.5	80.6	44	56.6	1	3	270	0.00	30.107 
14:40	80.1	80.1	80.3	43	55.6	1	4	292	0.00	30.107 
14:45	79.6	79.6	80.1	46	57.0	2	4	292	0.00	30.105 
14:50	79.8	79.8	80.1	44	55.9	1	4	248	0.00	30.105 
14:55	79.9	79.9	80.5	48	58.4	1	3	292	0.00	30.105 
15:00	80.9	80.9	81.0	44	56.9	1	3	248	0.00	30.097 
15:05	81.6	81.6	81.2	41	55.6	1	3	248	0.00	30.097 
15:10	81.6	81.6	80.9	38	53.5	1	4	248	0.00	30.097 
15:15	81.1	81.1	80.5	38	53.1	2	4	270	0.00	30.093 
15:20	80.7	80.7	80.3	39	53.4	1	3	248	0.00	30.093 
15:25	80.9	80.9	80.4	38	52.9	2	5	248	0.00	30.093 
15:30	80.7	80.7	80.3	39	53.4	1	3	315	0.00	30.087 
15:35	81.1	81.1	80.6	39	53.8	1	3	292	0.00	30.087 
15:40	81.1	81.1	80.8	41	55.1	1	3	270	0.00	30.087 
15:45	80.7	80.7	80.5	41	54.8	1	3	292	0.00	30.078 
15:50	80.5	80.5	80.5	42	55.3	1	3	292	0.00	30.078 
15:55	79.9	79.9	80.1	43	55.4	1	3	292	0.00	30.078 
16:00	80.1	80.1	80.3	43	55.6	1	3	315	0.00	30.076 
16:05	80.7	80.7	80.6	42	55.4	1	5	248	0.00	30.076 
16:10	81.1	81.1	80.8	41	55.1	2	4	248	0.00	30.076 
16:15	81.1	81.1	80.8	41	55.1	2	5	248	0.00	30.079 
16:20	80.9	80.9	80.6	40	54.3	2	4	270	0.00	30.079 
16:25	80.5	80.5	80.6	43	55.9	1	3	0	0.00	30.079 
16:30	80.7	80.7	80.6	42	55.4	1	4	248	0.00	30.078 
16:35	80.7	80.7	80.5	41	54.8	0	2	248	0.00	30.078 
16:40	80.3	80.3	80.2	41	54.4	1	3	338	0.00	30.078 
16:45	80.5	80.5	80.6	43	55.9	1	4	248	0.00	30.078 
16:50	80.7	80.7	80.7	43	56.1	1	4	248	0.00	30.078 
16:55	80.7	80.7	80.7	43	56.1	1	4	270	0.00	30.078 
17:00	80.3	80.3	80.2	41	54.4	1	3	292	0.00	30.078 
17:05	80.1	80.1	80.3	43	55.6	0	3	315	0.00	30.078 
17:10	80.5	80.5	80.6	43	55.9	1	4	248	0.00	30.078 
17:15	80.9	80.9	80.9	43	56.3	1	4	248	0.00	30.075 
17:20	80.9	80.9	80.8	42	55.6	1	3	270	0.00	30.075 
17:25	80.7	80.7	80.7	43	56.1	1	3	270	0.00	30.075 
17:30	80.3	80.3	80.4	43	55.7	2	4	248	0.00	30.074 
17:35	79.8	79.8	80.0	43	55.3	1	3	292	0.00	30.074 
17:40	79.8	79.8	80.1	44	55.9	0	2	225	0.00	30.074 
17:45	79.8	79.8	80.0	43	55.3	1	3	315	0.00	30.067 
17:50	79.8	79.8	80.0	43	55.3	1	2	315	0.00	30.067 
17:55	79.4	79.4	79.9	45	56.2	1	3	292	0.00	30.067 
18:00	79.4	79.4	79.9	45	56.2	1	3	270	0.00	30.066 
18:05	79.2	79.2	79.8	46	56.6	1	3	270	0.00	30.066 
18:10	79.0	79.0	79.7	46	56.4	0	2	45	0.00	30.066 
18:15	78.6	78.6	79.4	46	56.1	1	4	315	0.00	30.065 
18:20	78.6	78.6	79.4	46	56.1	1	2	292	0.00	30.065 
18:25	78.6	78.6	79.4	45	55.5	0	3	270	0.00	30.065 
18:30	78.3	78.3	79.2	46	55.8	1	2	315	0.00	30.063 
18:35	78.3	78.3	79.3	47	56.4	1	2	338	0.00	30.063 
18:40	78.1	78.1	79.1	46	55.6	1	3	248	0.00	30.063 
18:45	77.9	77.9	78.9	44	54.2	0	2	270	0.00	30.063 
18:50	77.9	77.9	78.9	45	54.8	0	2	315	0.00	30.063 
18:55	78.1	78.1	79.0	45	55.0	0	1	315	0.00	30.063 
19:00	78.1	78.1	79.0	45	55.0	0	1	315	0.00	30.063 
19:05	78.1	78.1	79.1	46	55.6	1	3	270	0.00	30.063 
19:10	77.7	77.7	78.9	46	55.2	0	1	270	0.00	30.063 
19:15	77.6	77.6	78.8	46	55.2	0	2	292	0.00	30.060 
19:20	77.4	77.4	78.7	46	55.0	0	1	292	0.00	30.060 
19:25	77.2	77.2	78.6	47	55.4	0	2	292	0.00	30.060 
19:30	77.0	77.0	78.5	48	55.8	0	2	292	0.00	30.058 
19:35	77.0	77.0	78.6	49	56.4	0	1	292	0.00	30.058 
19:40	76.7	76.7	78.4	50	56.6	0	1	292	0.00	30.058 
19:45	76.3	76.3	78.2	50	56.3	0	0	---	0.00	30.054 
19:50	76.0	76.0	78.1	51	56.5	0	0	---	0.00	30.054 
19:55	75.8	75.8	78.0	51	56.4	0	1	292	0.00	30.054 
20:00	75.4	75.4	77.8	53	57.1	0	1	292	0.00	30.048 
20:05	75.1	75.1	77.6	53	56.8	0	0	---	0.00	30.048 
20:10	74.7	74.7	74.7	54	56.9	0	0	---	0.00	30.048 
20:15	74.4	74.4	74.4	55	57.2	0	0	---	0.00	30.043 
20:20	74.2	74.2	74.2	56	57.5	0	0	---	0.00	30.043 
20:25	73.9	73.9	73.9	57	57.7	0	0	---	0.00	30.043 
20:30	73.3	73.3	73.3	58	57.6	0	0	---	0.00	30.049 
20:35	72.8	72.8	72.8	58	57.1	0	0	---	0.00	30.049 
20:40	72.3	72.3	72.3	61	58.1	0	0	---	0.00	30.049 
20:45	71.8	71.8	71.8	61	57.6	0	0	---	0.00	30.056 
20:50	71.1	71.1	71.1	62	57.4	0	0	---	0.00	30.056 
20:55	70.6	70.6	70.6	63	57.4	0	0	---	0.00	30.056 
21:00	70.1	70.1	70.1	65	57.8	0	0	---	0.00	30.058 
21:05	69.6	69.6	69.6	66	57.7	0	0	---	0.00	30.058 
21:10	69.3	69.3	69.3	67	57.9	0	0	---	0.00	30.058 
21:15	68.9	68.9	68.9	68	57.9	0	0	---	0.00	30.058 
21:20	68.4	68.4	68.4	69	57.8	0	0	---	0.00	30.058 
21:25	68.1	68.1	68.1	70	57.9	0	0	---	0.00	30.058 
21:30	67.9	67.9	67.9	71	58.1	0	0	---	0.00	30.070 
21:35	67.6	67.6	67.6	71	57.9	0	0	---	0.00	30.070 
21:40	67.3	67.3	67.3	71	57.6	0	0	---	0.00	30.070 
21:45	66.9	66.9	66.9	73	58.0	0	0	---	0.00	30.077 
21:50	66.8	66.8	66.8	74	58.2	0	0	---	0.00	30.077 
21:55	66.4	66.4	66.4	74	57.9	0	0	---	0.00	30.077 
22:00	66.3	66.3	66.3	75	58.1	0	0	---	0.00	30.086 
22:05	66.1	66.1	66.1	75	57.9	0	0	---	0.00	30.086 
22:10	66.0	66.0	66.0	75	57.8	0	0	---	0.00	30.086 
22:15	65.8	65.8	65.8	76	58.0	0	0	---	0.00	30.088 
22:20	65.6	65.6	65.6	77	58.2	0	0	---	0.00	30.088 
22:25	65.5	65.5	65.5	77	58.1	0	0	---	0.00	30.088 
22:30	65.3	65.3	65.3	78	58.3	0	0	---	0.00	30.090 
22:35	65.2	65.2	65.2	78	58.2	0	0	---	0.00	30.090 
22:40	65.0	65.0	65.0	78	58.0	0	0	---	0.00	30.090 
22:45	65.0	65.0	65.0	79	58.3	0	0	---	0.00	30.096 
22:50	64.8	64.8	64.8	79	58.1	0	0	---	0.00	30.096 
22:55	64.8	64.8	64.8	79	58.1	0	0	---	0.00	30.096 
23:00	64.7	64.7	64.7	79	58.0	0	0	---	0.00	30.095 
23:05	64.5	64.5	64.5	80	58.2	0	0	---	0.00	30.095 
23:10	64.3	64.3	64.3	81	58.3	0	0	---	0.00	30.095 
23:15	64.2	64.2	64.2	81	58.2	0	0	---	0.00	30.094 
23:20	64.0	64.0	64.0	81	58.0	0	0	---	0.00	30.094 
23:25	63.9	63.9	63.9	82	58.3	0	0	---	0.00	30.094 
23:30	63.9	63.9	63.9	82	58.3	0	0	---	0.00	30.093 
23:35	63.7	63.7	63.7	82	58.1	0	0	---	0.00	30.093 
23:40	63.5	63.5	63.5	82	57.9	0	0	---	0.00	30.093 
23:45	63.4	63.4	63.4	82	57.8	0	0	---	0.00	30.096 
23:50	63.2	63.2	63.2	82	57.6	0	0	---	0.00	30.096 
23:55	63.2	63.2	63.2	83	57.9	0	0	---	0.00	30.096 

CoCoRaHS
IN-AL-39
A2 Web Hosting
Creative Commons License
GoDaddy
Look for:

loaded 2017-12-11 12:17:18 • last modified 2010-11-18 10:43:29
Privacy PolicyDisclaimer
• wx.awcolley.com is powered by PmWiki v.2002016 •
• all content (unless otherwise noted) © 2017 A W Colley